CYXL

Sioux Lookout Airport

Sioux Lookout, Ontario, Canada
METAR CYXL 232300Z 10003KT 060V130 15SM BKN080 M16/M21 A3015 RMK AC7 SLP255
Observed Flight Rules
Jan-23 @ 23:00 UTC (46 minutes ago) Visual Flight Rules
Wind Visibility Clouds
100° at 3 knots 15 miles
  • Broken at 8,000' AGL
Temperatures Readings
Current -16°C / 3°F
Dewpoint -21°C / -6°F
Humidity 66%
Altimeter 30.15" Hg
Pressure 1025.5 hPa
Elevation 390
METAR CYXL 232300Z 10003KT 060V130 15SM BKN080 M16/M21 A3015 RMK AC7 SLP255
Observed Flight Rules
Jan-23 @ 23:00 UTC
(46 minutes ago)
VFR
Wind Visibility
100° at 3 knots 15 miles
Clouds
  • Broken at 8,000' AGL
Temperature Dewpoint
-16°C / 3°F -21°C / -6°F
Humidity Altimeter Pressure
66% 30.15" Hg 1025.5 hPa